sensor_id;sensor_type;location;lat;lon;timestamp;P1;durP1;ratioP1;P2;durP2;ratioP2
9248;SDS011;4660;41.768;26.198;2022-12-07T00:01:13;37.77;;;14.07;;
9248;SDS011;4660;41.768;26.198;2022-12-07T00:03:41;34.77;;;12.43;;
9248;SDS011;4660;41.768;26.198;2022-12-07T00:06:09;47.77;;;12.53;;
9248;SDS011;4660;41.768;26.198;2022-12-07T00:08:36;34.87;;;13.13;;
9248;SDS011;4660;41.768;26.198;2022-12-07T00:11:16;105.87;;;15.50;;
9248;SDS011;4660;41.768;26.198;2022-12-07T00:13:43;62.97;;;15.13;;
9248;SDS011;4660;41.768;26.198;2022-12-07T00:16:10;80.97;;;15.03;;
9248;SDS011;4660;41.768;26.198;2022-12-07T00:18:37;55.40;;;14.13;;
9248;SDS011;4660;41.768;26.198;2022-12-07T00:21:04;68.40;;;15.77;;
9248;SDS011;4660;41.768;26.198;2022-12-07T00:23:41;88.50;;;17.17;;
9248;SDS011;4660;41.768;26.198;2022-12-07T00:26:12;70.63;;;16.20;;
9248;SDS011;4660;41.768;26.198;2022-12-07T00:28:49;80.43;;;16.17;;
9248;SDS011;4660;41.768;26.198;2022-12-07T00:31:17;71.60;;;15.10;;
9248;SDS011;4660;41.768;26.198;2022-12-07T00:33:44;39.47;;;14.40;;
9248;SDS011;4660;41.768;26.198;2022-12-07T00:36:14;38.10;;;15.20;;
9248;SDS011;4660;41.768;26.198;2022-12-07T00:38:42;56.27;;;15.37;;
9248;SDS011;4660;41.768;26.198;2022-12-07T00:41:13;34.10;;;12.53;;
9248;SDS011;4660;41.768;26.198;2022-12-07T00:43:40;39.17;;;13.10;;
9248;SDS011;4660;41.768;26.198;2022-12-07T00:46:07;38.37;;;13.30;;
9248;SDS011;4660;41.768;26.198;2022-12-07T00:48:33;38.07;;;11.97;;
9248;SDS011;4660;41.768;26.198;2022-12-07T00:50:59;22.63;;;11.20;;
9248;SDS011;4660;41.768;26.198;2022-12-07T00:53:25;18.00;;;9.07;;
9248;SDS011;4660;41.768;26.198;2022-12-07T00:55:51;21.70;;;11.07;;
9248;SDS011;4660;41.768;26.198;2022-12-07T00:58:17;27.37;;;11.33;;
9248;SDS011;4660;41.768;26.198;2022-12-07T01:00:43;28.67;;;12.10;;
9248;SDS011;4660;41.768;26.198;2022-12-07T01:03:10;30.13;;;11.83;;
9248;SDS011;4660;41.768;26.198;2022-12-07T01:05:37;31.70;;;12.27;;
9248;SDS011;4660;41.768;26.198;2022-12-07T01:08:03;35.67;;;11.30;;
9248;SDS011;4660;41.768;26.198;2022-12-07T01:10:29;56.83;;;12.80;;
9248;SDS011;4660;41.768;26.198;2022-12-07T01:12:55;29.07;;;12.23;;
9248;SDS011;4660;41.768;26.198;2022-12-07T01:15:21;55.07;;;14.67;;
9248;SDS011;4660;41.768;26.198;2022-12-07T01:17:47;40.83;;;14.83;;
9248;SDS011;4660;41.768;26.198;2022-12-07T01:20:13;29.57;;;12.93;;
9248;SDS011;4660;41.768;26.198;2022-12-07T01:22:42;31.70;;;13.07;;
9248;SDS011;4660;41.768;26.198;2022-12-07T01:25:08;26.00;;;13.77;;
9248;SDS011;4660;41.768;26.198;2022-12-07T01:27:35;26.33;;;13.17;;
9248;SDS011;4660;41.768;26.198;2022-12-07T01:30:02;24.63;;;12.23;;
9248;SDS011;4660;41.768;26.198;2022-12-07T01:32:29;27.77;;;12.53;;
9248;SDS011;4660;41.768;26.198;2022-12-07T01:34:55;22.77;;;11.77;;
9248;SDS011;4660;41.768;26.198;2022-12-07T01:37:20;23.40;;;12.00;;
9248;SDS011;4660;41.768;26.198;2022-12-07T01:39:50;21.43;;;10.83;;
9248;SDS011;4660;41.768;26.198;2022-12-07T01:42:16;23.07;;;11.17;;
9248;SDS011;4660;41.768;26.198;2022-12-07T01:47:50;19.47;;;10.43;;
9248;SDS011;4660;41.768;26.198;2022-12-07T01:50:19;18.33;;;9.90;;
9248;SDS011;4660;41.768;26.198;2022-12-07T01:52:47;20.37;;;11.13;;
9248;SDS011;4660;41.768;26.198;2022-12-07T01:55:16;22.27;;;9.60;;
9248;SDS011;4660;41.768;26.198;2022-12-07T01:57:43;22.33;;;11.20;;
9248;SDS011;4660;41.768;26.198;2022-12-07T02:00:13;24.23;;;10.20;;
9248;SDS011;4660;41.768;26.198;2022-12-07T02:02:41;22.43;;;9.90;;
9248;SDS011;4660;41.768;26.198;2022-12-07T02:05:12;21.73;;;10.10;;
9248;SDS011;4660;41.768;26.198;2022-12-07T02:07:39;20.50;;;9.47;;
9248;SDS011;4660;41.768;26.198;2022-12-07T02:10:15;23.10;;;9.43;;
9248;SDS011;4660;41.768;26.198;2022-12-07T02:12:43;18.27;;;9.00;;
9248;SDS011;4660;41.768;26.198;2022-12-07T02:15:11;20.53;;;8.80;;
9248;SDS011;4660;41.768;26.198;2022-12-07T02:28:35;18.43;;;9.27;;
9248;SDS011;4660;41.768;26.198;2022-12-07T02:31:10;19.53;;;9.07;;
9248;SDS011;4660;41.768;26.198;2022-12-07T02:33:42;23.70;;;10.30;;
9248;SDS011;4660;41.768;26.198;2022-12-07T02:36:19;20.80;;;9.90;;
9248;SDS011;4660;41.768;26.198;2022-12-07T02:41:36;22.07;;;9.97;;
9248;SDS011;4660;41.768;26.198;2022-12-07T02:44:08;20.97;;;11.03;;
9248;SDS011;4660;41.768;26.198;2022-12-07T02:47:00;24.97;;;11.87;;
9248;SDS011;4660;41.768;26.198;2022-12-07T02:49:27;26.47;;;12.40;;
9248;SDS011;4660;41.768;26.198;2022-12-07T02:51:55;37.43;;;16.37;;
9248;SDS011;4660;41.768;26.198;2022-12-07T02:54:21;26.27;;;11.50;;
9248;SDS011;4660;41.768;26.198;2022-12-07T02:57:07;30.90;;;11.70;;
9248;SDS011;4660;41.768;26.198;2022-12-07T03:10:00;27.23;;;12.50;;
9248;SDS011;4660;41.768;26.198;2022-12-07T03:12:40;24.23;;;12.00;;
9248;SDS011;4660;41.768;26.198;2022-12-07T03:15:14;23.50;;;11.43;;
9248;SDS011;4660;41.768;26.198;2022-12-07T03:17:47;19.43;;;10.23;;
9248;SDS011;4660;41.768;26.198;2022-12-07T03:20:16;19.57;;;10.20;;
9248;SDS011;4660;41.768;26.198;2022-12-07T03:22:45;24.13;;;11.60;;
9248;SDS011;4660;41.768;26.198;2022-12-07T03:25:13;28.17;;;11.63;;
9248;SDS011;4660;41.768;26.198;2022-12-07T03:27:44;33.87;;;12.63;;
9248;SDS011;4660;41.768;26.198;2022-12-07T03:30:17;24.90;;;11.77;;
9248;SDS011;4660;41.768;26.198;2022-12-07T03:32:50;19.07;;;9.57;;
9248;SDS011;4660;41.768;26.198;2022-12-07T03:35:43;20.43;;;10.43;;
9248;SDS011;4660;41.768;26.198;2022-12-07T03:38:26;22.17;;;10.73;;
9248;SDS011;4660;41.768;26.198;2022-12-07T03:41:18;24.40;;;9.47;;
9248;SDS011;4660;41.768;26.198;2022-12-07T03:43:47;18.80;;;9.50;;
9248;SDS011;4660;41.768;26.198;2022-12-07T03:54:20;18.93;;;10.30;;
9248;SDS011;4660;41.768;26.198;2022-12-07T03:56:50;21.80;;;10.80;;
9248;SDS011;4660;41.768;26.198;2022-12-07T03:59:19;23.30;;;10.30;;
9248;SDS011;4660;41.768;26.198;2022-12-07T04:01:48;22.93;;;11.33;;
9248;SDS011;4660;41.768;26.198;2022-12-07T04:04:21;27.10;;;10.83;;
9248;SDS011;4660;41.768;26.198;2022-12-07T04:06:47;18.47;;;10.60;;
9248;SDS011;4660;41.768;26.198;2022-12-07T04:09:12;22.33;;;10.93;;
9248;SDS011;4660;41.768;26.198;2022-12-07T04:11:39;19.87;;;10.80;;
9248;SDS011;4660;41.768;26.198;2022-12-07T04:14:05;19.97;;;10.83;;
9248;SDS011;4660;41.768;26.198;2022-12-07T04:16:46;23.40;;;10.33;;
9248;SDS011;4660;41.768;26.198;2022-12-07T04:19:15;20.37;;;11.40;;
9248;SDS011;4660;41.768;26.198;2022-12-07T04:21:42;24.17;;;11.07;;
9248;SDS011;4660;41.768;26.198;2022-12-07T04:24:08;24.20;;;12.53;;
9248;SDS011;4660;41.768;26.198;2022-12-07T04:26:33;29.97;;;13.40;;
9248;SDS011;4660;41.768;26.198;2022-12-07T04:28:59;30.93;;;14.63;;
9248;SDS011;4660;41.768;26.198;2022-12-07T04:31:24;27.97;;;13.10;;
9248;SDS011;4660;41.768;26.198;2022-12-07T04:33:50;25.13;;;12.23;;
9248;SDS011;4660;41.768;26.198;2022-12-07T04:36:16;32.90;;;12.60;;
9248;SDS011;4660;41.768;26.198;2022-12-07T04:38:42;32.87;;;14.33;;
9248;SDS011;4660;41.768;26.198;2022-12-07T04:41:08;33.17;;;13.40;;
9248;SDS011;4660;41.768;26.198;2022-12-07T04:43:35;33.67;;;14.90;;
9248;SDS011;4660;41.768;26.198;2022-12-07T04:46:01;28.63;;;14.40;;
9248;SDS011;4660;41.768;26.198;2022-12-07T04:48:27;26.77;;;13.93;;
9248;SDS011;4660;41.768;26.198;2022-12-07T04:50:52;32.27;;;15.33;;
9248;SDS011;4660;41.768;26.198;2022-12-07T04:53:18;33.90;;;14.17;;
9248;SDS011;4660;41.768;26.198;2022-12-07T04:55:44;34.53;;;15.43;;
9248;SDS011;4660;41.768;26.198;2022-12-07T04:58:10;46.37;;;20.33;;
9248;SDS011;4660;41.768;26.198;2022-12-07T05:00:36;50.13;;;23.73;;
9248;SDS011;4660;41.768;26.198;2022-12-07T05:03:02;46.57;;;24.30;;
9248;SDS011;4660;41.768;26.198;2022-12-07T05:05:28;51.50;;;24.93;;
9248;SDS011;4660;41.768;26.198;2022-12-07T05:07:53;40.30;;;23.70;;
9248;SDS011;4660;41.768;26.198;2022-12-07T05:10:19;45.40;;;22.93;;
9248;SDS011;4660;41.768;26.198;2022-12-07T05:12:45;37.40;;;20.77;;
9248;SDS011;4660;41.768;26.198;2022-12-07T05:15:11;30.07;;;15.37;;
9248;SDS011;4660;41.768;26.198;2022-12-07T05:17:38;34.50;;;17.77;;
9248;SDS011;4660;41.768;26.198;2022-12-07T05:20:04;33.60;;;17.93;;
9248;SDS011;4660;41.768;26.198;2022-12-07T05:22:30;31.70;;;17.67;;
9248;SDS011;4660;41.768;26.198;2022-12-07T05:24:56;32.00;;;16.07;;
9248;SDS011;4660;41.768;26.198;2022-12-07T05:27:21;34.47;;;16.20;;
9248;SDS011;4660;41.768;26.198;2022-12-07T05:29:49;47.90;;;18.90;;
9248;SDS011;4660;41.768;26.198;2022-12-07T05:32:15;46.47;;;17.83;;
9248;SDS011;4660;41.768;26.198;2022-12-07T05:34:40;49.03;;;18.90;;
9248;SDS011;4660;41.768;26.198;2022-12-07T05:37:06;42.73;;;18.10;;
9248;SDS011;4660;41.768;26.198;2022-12-07T05:39:32;35.77;;;16.50;;
9248;SDS011;4660;41.768;26.198;2022-12-07T05:41:57;49.60;;;19.00;;
9248;SDS011;4660;41.768;26.198;2022-12-07T05:44:39;42.70;;;17.77;;
9248;SDS011;4660;41.768;26.198;2022-12-07T05:47:05;58.83;;;21.77;;
9248;SDS011;4660;41.768;26.198;2022-12-07T05:49:31;55.97;;;23.23;;
9248;SDS011;4660;41.768;26.198;2022-12-07T05:51:56;59.33;;;24.10;;
9248;SDS011;4660;41.768;26.198;2022-12-07T05:54:22;68.87;;;24.10;;
9248;SDS011;4660;41.768;26.198;2022-12-07T05:56:48;60.23;;;23.63;;
9248;SDS011;4660;41.768;26.198;2022-12-07T05:59:13;56.20;;;24.17;;
9248;SDS011;4660;41.768;26.198;2022-12-07T06:01:48;70.17;;;28.73;;
9248;SDS011;4660;41.768;26.198;2022-12-07T06:04:29;86.80;;;29.93;;
9248;SDS011;4660;41.768;26.198;2022-12-07T06:06:59;79.60;;;29.03;;
9248;SDS011;4660;41.768;26.198;2022-12-07T06:09:26;84.87;;;29.47;;
9248;SDS011;4660;41.768;26.198;2022-12-07T06:11:52;90.07;;;30.13;;
9248;SDS011;4660;41.768;26.198;2022-12-07T06:14:37;98.80;;;33.23;;
9248;SDS011;4660;41.768;26.198;2022-12-07T06:17:03;96.57;;;31.23;;
9248;SDS011;4660;41.768;26.198;2022-12-07T06:19:28;98.40;;;32.70;;
9248;SDS011;4660;41.768;26.198;2022-12-07T06:21:54;113.87;;;35.20;;
9248;SDS011;4660;41.768;26.198;2022-12-07T06:24:20;114.43;;;36.70;;
9248;SDS011;4660;41.768;26.198;2022-12-07T06:26:46;102.10;;;39.90;;
9248;SDS011;4660;41.768;26.198;2022-12-07T06:29:12;106.23;;;38.67;;
9248;SDS011;4660;41.768;26.198;2022-12-07T06:31:38;86.37;;;37.73;;
9248;SDS011;4660;41.768;26.198;2022-12-07T06:34:05;87.07;;;35.40;;
9248;SDS011;4660;41.768;26.198;2022-12-07T06:36:32;88.03;;;33.70;;
9248;SDS011;4660;41.768;26.198;2022-12-07T06:38:58;84.43;;;30.63;;
9248;SDS011;4660;41.768;26.198;2022-12-07T06:41:23;91.10;;;30.13;;
9248;SDS011;4660;41.768;26.198;2022-12-07T06:43:49;72.47;;;27.83;;
9248;SDS011;4660;41.768;26.198;2022-12-07T06:46:16;72.97;;;26.03;;
9248;SDS011;4660;41.768;26.198;2022-12-07T06:48:46;72.90;;;27.63;;
9248;SDS011;4660;41.768;26.198;2022-12-07T06:51:12;63.40;;;22.90;;
9248;SDS011;4660;41.768;26.198;2022-12-07T06:53:38;70.90;;;24.53;;
9248;SDS011;4660;41.768;26.198;2022-12-07T06:56:04;70.67;;;23.87;;
9248;SDS011;4660;41.768;26.198;2022-12-07T06:58:30;64.63;;;22.47;;
9248;SDS011;4660;41.768;26.198;2022-12-07T07:00:56;94.20;;;31.27;;
9248;SDS011;4660;41.768;26.198;2022-12-07T07:03:21;88.10;;;27.87;;
9248;SDS011;4660;41.768;26.198;2022-12-07T07:05:48;85.60;;;28.43;;
9248;SDS011;4660;41.768;26.198;2022-12-07T07:08:14;79.63;;;26.83;;
9248;SDS011;4660;41.768;26.198;2022-12-07T07:10:42;77.10;;;25.90;;
9248;SDS011;4660;41.768;26.198;2022-12-07T07:13:08;74.73;;;23.57;;
9248;SDS011;4660;41.768;26.198;2022-12-07T07:15:33;74.73;;;25.03;;
9248;SDS011;4660;41.768;26.198;2022-12-07T07:18:02;77.60;;;26.87;;
9248;SDS011;4660;41.768;26.198;2022-12-07T07:20:31;75.83;;;23.93;;
9248;SDS011;4660;41.768;26.198;2022-12-07T07:22:56;85.60;;;26.33;;
9248;SDS011;4660;41.768;26.198;2022-12-07T07:25:22;84.90;;;26.77;;
9248;SDS011;4660;41.768;26.198;2022-12-07T07:27:48;82.70;;;27.27;;
9248;SDS011;4660;41.768;26.198;2022-12-07T07:30:14;78.33;;;24.77;;
9248;SDS011;4660;41.768;26.198;2022-12-07T07:32:41;73.20;;;23.13;;
9248;SDS011;4660;41.768;26.198;2022-12-07T07:35:07;78.60;;;24.77;;
9248;SDS011;4660;41.768;26.198;2022-12-07T07:37:33;83.87;;;27.13;;
9248;SDS011;4660;41.768;26.198;2022-12-07T07:39:59;85.07;;;27.83;;
9248;SDS011;4660;41.768;26.198;2022-12-07T07:42:26;73.73;;;27.83;;
9248;SDS011;4660;41.768;26.198;2022-12-07T07:44:52;87.43;;;30.50;;
9248;SDS011;4660;41.768;26.198;2022-12-07T07:47:18;94.40;;;31.57;;
9248;SDS011;4660;41.768;26.198;2022-12-07T07:49:43;97.50;;;34.87;;
9248;SDS011;4660;41.768;26.198;2022-12-07T07:52:09;174.37;;;70.80;;
9248;SDS011;4660;41.768;26.198;2022-12-07T07:54:35;135.10;;;59.20;;
9248;SDS011;4660;41.768;26.198;2022-12-07T07:57:04;137.40;;;59.43;;
9248;SDS011;4660;41.768;26.198;2022-12-07T07:59:31;134.60;;;52.10;;
9248;SDS011;4660;41.768;26.198;2022-12-07T08:02:05;101.00;;;42.50;;
9248;SDS011;4660;41.768;26.198;2022-12-07T08:04:35;99.40;;;38.87;;
9248;SDS011;4660;41.768;26.198;2022-12-07T08:07:01;91.90;;;35.87;;
9248;SDS011;4660;41.768;26.198;2022-12-07T08:09:30;88.43;;;32.30;;
9248;SDS011;4660;41.768;26.198;2022-12-07T08:12:10;105.60;;;38.73;;
9248;SDS011;4660;41.768;26.198;2022-12-07T08:14:44;96.77;;;37.60;;
9248;SDS011;4660;41.768;26.198;2022-12-07T08:17:12;91.53;;;34.37;;
9248;SDS011;4660;41.768;26.198;2022-12-07T08:19:40;84.10;;;31.47;;
9248;SDS011;4660;41.768;26.198;2022-12-07T08:22:07;83.33;;;31.47;;
9248;SDS011;4660;41.768;26.198;2022-12-07T08:24:35;73.37;;;27.83;;
9248;SDS011;4660;41.768;26.198;2022-12-07T08:27:07;79.37;;;30.43;;
9248;SDS011;4660;41.768;26.198;2022-12-07T08:29:39;67.77;;;26.60;;
9248;SDS011;4660;41.768;26.198;2022-12-07T08:32:06;101.57;;;35.50;;
9248;SDS011;4660;41.768;26.198;2022-12-07T08:34:32;81.40;;;31.80;;
9248;SDS011;4660;41.768;26.198;2022-12-07T08:37:00;79.03;;;35.43;;
9248;SDS011;4660;41.768;26.198;2022-12-07T08:39:27;67.97;;;28.07;;
9248;SDS011;4660;41.768;26.198;2022-12-07T08:41:53;64.80;;;27.77;;
9248;SDS011;4660;41.768;26.198;2022-12-07T08:44:22;60.70;;;27.27;;
9248;SDS011;4660;41.768;26.198;2022-12-07T08:46:57;65.63;;;27.70;;
9248;SDS011;4660;41.768;26.198;2022-12-07T08:49:27;53.87;;;26.93;;
9248;SDS011;4660;41.768;26.198;2022-12-07T08:51:58;61.77;;;30.87;;
9248;SDS011;4660;41.768;26.198;2022-12-07T08:54:24;62.20;;;29.13;;
9248;SDS011;4660;41.768;26.198;2022-12-07T08:56:51;58.07;;;28.50;;
9248;SDS011;4660;41.768;26.198;2022-12-07T08:59:21;58.33;;;28.10;;
9248;SDS011;4660;41.768;26.198;2022-12-07T09:01:48;56.07;;;26.53;;
9248;SDS011;4660;41.768;26.198;2022-12-07T09:04:14;60.00;;;26.80;;
9248;SDS011;4660;41.768;26.198;2022-12-07T09:06:41;64.70;;;29.83;;
9248;SDS011;4660;41.768;26.198;2022-12-07T09:09:10;53.40;;;26.57;;
9248;SDS011;4660;41.768;26.198;2022-12-07T09:11:40;63.77;;;29.00;;
9248;SDS011;4660;41.768;26.198;2022-12-07T09:14:22;67.80;;;29.90;;
9248;SDS011;4660;41.768;26.198;2022-12-07T09:17:05;59.67;;;28.50;;
9248;SDS011;4660;41.768;26.198;2022-12-07T09:19:37;68.53;;;31.10;;
9248;SDS011;4660;41.768;26.198;2022-12-07T09:22:09;68.80;;;30.43;;
9248;SDS011;4660;41.768;26.198;2022-12-07T09:24:39;68.47;;;31.23;;
9248;SDS011;4660;41.768;26.198;2022-12-07T09:27:11;58.47;;;28.87;;
9248;SDS011;4660;41.768;26.198;2022-12-07T09:29:40;60.70;;;29.47;;
9248;SDS011;4660;41.768;26.198;2022-12-07T09:32:06;57.10;;;30.73;;
9248;SDS011;4660;41.768;26.198;2022-12-07T09:34:33;66.43;;;31.93;;
9248;SDS011;4660;41.768;26.198;2022-12-07T09:37:01;75.70;;;33.90;;
9248;SDS011;4660;41.768;26.198;2022-12-07T09:39:29;64.63;;;32.40;;
9248;SDS011;4660;41.768;26.198;2022-12-07T09:41:57;60.47;;;30.03;;
9248;SDS011;4660;41.768;26.198;2022-12-07T09:44:24;65.97;;;29.87;;
9248;SDS011;4660;41.768;26.198;2022-12-07T09:46:56;69.10;;;31.30;;
9248;SDS011;4660;41.768;26.198;2022-12-07T09:49:28;71.10;;;31.37;;
9248;SDS011;4660;41.768;26.198;2022-12-07T09:52:03;59.27;;;28.73;;
9248;SDS011;4660;41.768;26.198;2022-12-07T09:54:50;53.70;;;27.23;;
9248;SDS011;4660;41.768;26.198;2022-12-07T09:57:32;41.53;;;23.37;;
9248;SDS011;4660;41.768;26.198;2022-12-07T10:00:01;51.67;;;27.80;;
9248;SDS011;4660;41.768;26.198;2022-12-07T10:05:30;46.17;;;24.23;;
9248;SDS011;4660;41.768;26.198;2022-12-07T10:08:07;39.53;;;24.43;;
9248;SDS011;4660;41.768;26.198;2022-12-07T10:10:37;42.80;;;23.87;;
9248;SDS011;4660;41.768;26.198;2022-12-07T10:13:18;37.00;;;21.30;;
9248;SDS011;4660;41.768;26.198;2022-12-07T10:15:53;39.57;;;20.97;;
9248;SDS011;4660;41.768;26.198;2022-12-07T10:18:38;34.63;;;19.47;;
9248;SDS011;4660;41.768;26.198;2022-12-07T10:23:36;37.33;;;21.90;;
9248;SDS011;4660;41.768;26.198;2022-12-07T10:26:38;42.63;;;24.20;;
9248;SDS011;4660;41.768;26.198;2022-12-07T10:31:54;50.40;;;25.97;;
9248;SDS011;4660;41.768;26.198;2022-12-07T10:34:28;56.50;;;28.23;;
9248;SDS011;4660;41.768;26.198;2022-12-07T10:39:53;54.40;;;27.43;;
9248;SDS011;4660;41.768;26.198;2022-12-07T10:42:25;58.17;;;29.70;;
9248;SDS011;4660;41.768;26.198;2022-12-07T10:47:55;66.17;;;30.30;;
9248;SDS011;4660;41.768;26.198;2022-12-07T10:54:10;66.20;;;32.37;;
9248;SDS011;4660;41.768;26.198;2022-12-07T10:59:51;63.23;;;33.23;;
9248;SDS011;4660;41.768;26.198;2022-12-07T11:02:46;64.20;;;34.97;;
9248;SDS011;4660;41.768;26.198;2022-12-07T11:12:26;55.07;;;28.97;;
9248;SDS011;4660;41.768;26.198;2022-12-07T11:15:46;48.47;;;27.97;;
9248;SDS011;4660;41.768;26.198;2022-12-07T11:18:11;48.23;;;28.03;;
9248;SDS011;4660;41.768;26.198;2022-12-07T11:24:14;39.30;;;25.60;;
9248;SDS011;4660;41.768;26.198;2022-12-07T11:27:04;43.03;;;24.73;;
9248;SDS011;4660;41.768;26.198;2022-12-07T11:30:19;40.17;;;24.37;;
9248;SDS011;4660;41.768;26.198;2022-12-07T11:33:18;38.00;;;24.67;;
9248;SDS011;4660;41.768;26.198;2022-12-07T11:36:11;42.10;;;24.70;;
9248;SDS011;4660;41.768;26.198;2022-12-07T11:41:40;30.97;;;21.47;;
9248;SDS011;4660;41.768;26.198;2022-12-07T11:44:50;28.60;;;18.77;;
9248;SDS011;4660;41.768;26.198;2022-12-07T11:47:45;29.80;;;20.03;;
9248;SDS011;4660;41.768;26.198;2022-12-07T11:50:45;26.73;;;18.30;;
9248;SDS011;4660;41.768;26.198;2022-12-07T11:53:55;25.67;;;18.10;;
9248;SDS011;4660;41.768;26.198;2022-12-07T11:56:40;26.63;;;17.37;;
9248;SDS011;4660;41.768;26.198;2022-12-07T11:59:17;21.57;;;15.30;;
9248;SDS011;4660;41.768;26.198;2022-12-07T12:02:12;23.10;;;16.73;;
9248;SDS011;4660;41.768;26.198;2022-12-07T12:05:17;26.47;;;17.83;;
9248;SDS011;4660;41.768;26.198;2022-12-07T12:07:47;21.07;;;16.57;;
9248;SDS011;4660;41.768;26.198;2022-12-07T12:11:13;21.63;;;16.00;;
9248;SDS011;4660;41.768;26.198;2022-12-07T12:14:05;25.90;;;17.27;;
9248;SDS011;4660;41.768;26.198;2022-12-07T12:19:59;31.73;;;17.87;;
9248;SDS011;4660;41.768;26.198;2022-12-07T12:23:09;29.07;;;17.00;;
9248;SDS011;4660;41.768;26.198;2022-12-07T12:26:25;24.37;;;16.77;;
9248;SDS011;4660;41.768;26.198;2022-12-07T12:29:19;26.83;;;16.90;;
9248;SDS011;4660;41.768;26.198;2022-12-07T12:32:19;19.00;;;14.73;;
9248;SDS011;4660;41.768;26.198;2022-12-07T12:41:03;26.17;;;17.73;;
9248;SDS011;4660;41.768;26.198;2022-12-07T12:46:36;21.20;;;15.80;;
9248;SDS011;4660;41.768;26.198;2022-12-07T12:55:12;26.70;;;18.37;;
9248;SDS011;4660;41.768;26.198;2022-12-07T13:00:36;24.80;;;17.73;;
9248;SDS011;4660;41.768;26.198;2022-12-07T13:03:30;28.03;;;16.97;;
9248;SDS011;4660;41.768;26.198;2022-12-07T13:09:31;27.70;;;16.50;;
9248;SDS011;4660;41.768;26.198;2022-12-07T13:15:00;26.13;;;17.07;;
9248;SDS011;4660;41.768;26.198;2022-12-07T13:20:07;23.87;;;15.90;;
9248;SDS011;4660;41.768;26.198;2022-12-07T13:23:16;21.20;;;15.47;;
9248;SDS011;4660;41.768;26.198;2022-12-07T13:26:12;21.40;;;15.17;;
9248;SDS011;4660;41.768;26.198;2022-12-07T13:29:17;25.50;;;16.00;;
9248;SDS011;4660;41.768;26.198;2022-12-07T13:32:32;26.07;;;16.97;;
9248;SDS011;4660;41.768;26.198;2022-12-07T13:34:59;24.17;;;18.40;;
9248;SDS011;4660;41.768;26.198;2022-12-07T13:41:16;30.37;;;20.33;;
9248;SDS011;4660;41.768;26.198;2022-12-07T13:44:10;31.37;;;21.00;;
9248;SDS011;4660;41.768;26.198;2022-12-07T13:49:17;36.77;;;24.80;;
9248;SDS011;4660;41.768;26.198;2022-12-07T13:51:50;37.70;;;24.17;;
9248;SDS011;4660;41.768;26.198;2022-12-07T13:54:17;35.17;;;23.20;;
9248;SDS011;4660;41.768;26.198;2022-12-07T13:56:46;34.10;;;22.70;;
9248;SDS011;4660;41.768;26.198;2022-12-07T13:59:17;36.37;;;24.63;;
9248;SDS011;4660;41.768;26.198;2022-12-07T14:01:48;41.27;;;25.63;;
9248;SDS011;4660;41.768;26.198;2022-12-07T14:04:16;34.70;;;22.93;;
9248;SDS011;4660;41.768;26.198;2022-12-07T14:06:54;35.83;;;23.07;;
9248;SDS011;4660;41.768;26.198;2022-12-07T14:09:27;49.77;;;29.93;;
9248;SDS011;4660;41.768;26.198;2022-12-07T14:11:56;45.00;;;28.47;;
9248;SDS011;4660;41.768;26.198;2022-12-07T14:14:26;45.97;;;27.43;;
9248;SDS011;4660;41.768;26.198;2022-12-07T14:16:59;43.87;;;26.70;;
9248;SDS011;4660;41.768;26.198;2022-12-07T14:19:58;38.20;;;24.90;;
9248;SDS011;4660;41.768;26.198;2022-12-07T14:22:37;34.80;;;22.83;;
9248;SDS011;4660;41.768;26.198;2022-12-07T14:25:22;33.87;;;23.60;;
9248;SDS011;4660;41.768;26.198;2022-12-07T14:28:00;37.53;;;23.73;;
9248;SDS011;4660;41.768;26.198;2022-12-07T14:30:27;39.47;;;23.27;;
9248;SDS011;4660;41.768;26.198;2022-12-07T14:32:59;37.47;;;22.97;;
9248;SDS011;4660;41.768;26.198;2022-12-07T14:35:26;33.07;;;22.40;;
9248;SDS011;4660;41.768;26.198;2022-12-07T14:37:54;29.00;;;21.03;;
9248;SDS011;4660;41.768;26.198;2022-12-07T14:40:24;35.47;;;21.90;;
9248;SDS011;4660;41.768;26.198;2022-12-07T14:42:57;30.23;;;20.67;;
9248;SDS011;4660;41.768;26.198;2022-12-07T14:45:34;36.43;;;24.83;;
9248;SDS011;4660;41.768;26.198;2022-12-07T14:48:43;38.13;;;25.77;;
9248;SDS011;4660;41.768;26.198;2022-12-07T14:51:21;34.17;;;22.57;;
9248;SDS011;4660;41.768;26.198;2022-12-07T14:54:38;37.50;;;25.93;;
9248;SDS011;4660;41.768;26.198;2022-12-07T14:57:07;53.47;;;38.47;;
9248;SDS011;4660;41.768;26.198;2022-12-07T14:59:35;79.77;;;43.00;;
9248;SDS011;4660;41.768;26.198;2022-12-07T15:02:26;124.97;;;63.27;;
9248;SDS011;4660;41.768;26.198;2022-12-07T15:04:55;121.77;;;60.93;;
9248;SDS011;4660;41.768;26.198;2022-12-07T15:07:25;74.60;;;41.67;;
9248;SDS011;4660;41.768;26.198;2022-12-07T15:09:51;81.43;;;46.87;;
9248;SDS011;4660;41.768;26.198;2022-12-07T15:12:17;95.60;;;53.87;;
9248;SDS011;4660;41.768;26.198;2022-12-07T15:14:43;104.90;;;58.77;;
9248;SDS011;4660;41.768;26.198;2022-12-07T15:17:11;97.23;;;53.20;;
9248;SDS011;4660;41.768;26.198;2022-12-07T15:19:56;93.37;;;53.70;;
9248;SDS011;4660;41.768;26.198;2022-12-07T15:22:22;78.57;;;46.80;;
9248;SDS011;4660;41.768;26.198;2022-12-07T15:24:49;59.43;;;36.90;;
9248;SDS011;4660;41.768;26.198;2022-12-07T15:27:16;50.73;;;34.43;;
9248;SDS011;4660;41.768;26.198;2022-12-07T15:29:44;48.53;;;33.07;;
9248;SDS011;4660;41.768;26.198;2022-12-07T15:32:10;50.23;;;32.87;;
9248;SDS011;4660;41.768;26.198;2022-12-07T15:34:36;63.63;;;37.07;;
9248;SDS011;4660;41.768;26.198;2022-12-07T15:37:04;66.47;;;38.67;;
9248;SDS011;4660;41.768;26.198;2022-12-07T15:39:31;100.80;;;59.93;;
9248;SDS011;4660;41.768;26.198;2022-12-07T15:41:57;141.03;;;86.47;;
9248;SDS011;4660;41.768;26.198;2022-12-07T15:44:23;99.43;;;62.60;;
9248;SDS011;4660;41.768;26.198;2022-12-07T15:47:07;95.63;;;58.03;;
9248;SDS011;4660;41.768;26.198;2022-12-07T15:49:33;92.27;;;58.33;;
9248;SDS011;4660;41.768;26.198;2022-12-07T15:51:59;96.40;;;60.60;;
9248;SDS011;4660;41.768;26.198;2022-12-07T15:54:28;96.73;;;60.10;;
9248;SDS011;4660;41.768;26.198;2022-12-07T15:57:02;83.80;;;58.83;;
9248;SDS011;4660;41.768;26.198;2022-12-07T15:59:28;93.93;;;58.93;;
9248;SDS011;4660;41.768;26.198;2022-12-07T16:01:54;161.50;;;85.13;;
9248;SDS011;4660;41.768;26.198;2022-12-07T16:04:22;173.90;;;85.70;;
9248;SDS011;4660;41.768;26.198;2022-12-07T16:06:47;109.50;;;58.60;;
9248;SDS011;4660;41.768;26.198;2022-12-07T16:09:16;101.80;;;53.90;;
9248;SDS011;4660;41.768;26.198;2022-12-07T16:11:42;99.53;;;56.17;;
9248;SDS011;4660;41.768;26.198;2022-12-07T16:14:09;102.47;;;55.07;;
9248;SDS011;4660;41.768;26.198;2022-12-07T16:16:35;133.03;;;65.57;;
9248;SDS011;4660;41.768;26.198;2022-12-07T16:19:05;85.20;;;49.37;;
9248;SDS011;4660;41.768;26.198;2022-12-07T16:21:31;65.13;;;38.50;;
9248;SDS011;4660;41.768;26.198;2022-12-07T16:23:59;47.27;;;28.63;;
9248;SDS011;4660;41.768;26.198;2022-12-07T16:26:25;59.07;;;34.17;;
9248;SDS011;4660;41.768;26.198;2022-12-07T16:28:51;48.43;;;29.07;;
9248;SDS011;4660;41.768;26.198;2022-12-07T16:31:22;47.37;;;29.57;;
9248;SDS011;4660;41.768;26.198;2022-12-07T16:33:50;48.03;;;29.83;;
9248;SDS011;4660;41.768;26.198;2022-12-07T16:36:19;66.43;;;35.33;;
9248;SDS011;4660;41.768;26.198;2022-12-07T16:38:47;77.93;;;37.47;;
9248;SDS011;4660;41.768;26.198;2022-12-07T16:41:13;63.67;;;34.50;;
9248;SDS011;4660;41.768;26.198;2022-12-07T16:43:41;46.20;;;25.67;;
9248;SDS011;4660;41.768;26.198;2022-12-07T16:46:07;34.83;;;21.53;;
9248;SDS011;4660;41.768;26.198;2022-12-07T16:48:37;51.17;;;26.93;;